Time;durP1;ratioP1;P1;durP2;ratioP2;P2;SDS_P1;SDS_P2;PMS_P1;PMS_P2;Temp;Humidity;BMP_temperature;BMP_pressure;BME280_temperature;BME280_humidity;BME280_pressure;Samples;Min_cycle;Max_cycle;Signal;HPM_P1;HPM_P2
2021/10/15 00:00:03;;;;;;;;;;;5.30;1.00;;;;;;5071377;28;20003;-69
2021/10/15 00:02:30;;;;;;;;;;;5.30;1.00;;;;;;5071189;28;19979;-69
2021/10/15 00:04:55;;;;;;;;;;;5.20;1.00;;;;;;5072165;28;19917;-69
2021/10/15 00:07:20;;;;;;;;;;;5.20;1.00;;;;;;5071409;28;20398;-67
2021/10/15 00:09:46;;;;;;;;;;;5.10;1.00;;;;;;5071965;28;19923;-69
2021/10/15 00:12:12;;;;;;;;;;;5.10;1.00;;;;;;5070454;28;19908;-68
2021/10/15 00:14:38;;;;;;;;;;;5.20;1.00;;;;;;5071109;28;20270;-68
2021/10/15 00:17:03;;;;;;;;;;;5.20;1.00;;;;;;5071534;28;19908;-68
2021/10/15 00:19:29;;;;;;;;;;;5.20;1.00;;;;;;5071638;28;19924;-69
2021/10/15 00:21:54;;;;;;;;;;;5.20;1.00;;;;;;5070725;28;20003;-68
2021/10/15 00:24:20;;;;;;;;;;;5.20;1.00;;;;;;5071494;28;20030;-68
2021/10/15 00:26:45;;;;;;;;;;;5.20;1.00;;;;;;5070875;28;19912;-67
2021/10/15 00:29:11;;;;;;;;;;;5.20;1.00;;;;;;5076081;28;19952;-68
2021/10/15 00:31:36;;;;;;;;;;;5.10;1.00;;;;;;5071320;28;19908;-69
2021/10/15 00:34:02;;;;;;;;;;;5.10;1.00;;;;;;5070411;28;19908;-69
2021/10/15 00:36:28;;;;;;;;;;;5.00;1.00;;;;;;5071452;28;19913;-67
2021/10/15 00:38:53;;;;;;;;;;;5.00;1.00;;;;;;5091557;28;19912;-67
2021/10/15 00:41:19;;;;;;;;;;;5.00;1.00;;;;;;5091720;28;19947;-65
2021/10/15 00:44:01;;;;;;;;;;;5.00;1.00;;;;;;5088381;28;19912;-69
2021/10/15 00:46:26;;;;;;;;;;;4.90;1.00;;;;;;5091259;28;19912;-69
2021/10/15 00:48:52;;;;;;;;;;;4.90;1.00;;;;;;5091035;28;19969;-69
2021/10/15 00:51:17;;;;;;;;;;;4.90;1.00;;;;;;5091347;28;20007;-68
2021/10/15 00:53:43;;;;;;;;;;;4.80;1.00;;;;;;5089533;28;20352;-68
2021/10/15 00:56:09;;;;;;;;;;;4.90;1.00;;;;;;5091556;28;19988;-69
2021/10/15 00:58:34;;;;;;;;;;;4.90;1.00;;;;;;5089412;28;19924;-69
2021/10/15 01:01:00;;;;;;;;;;;4.90;1.00;;;;;;5091510;28;19955;-69
2021/10/15 01:03:25;;;;;;;;;;;4.90;1.00;;;;;;5089759;28;19909;-68
2021/10/15 01:05:51;;;;;;;;;;;4.90;1.00;;;;;;5084577;28;19969;-67
2021/10/15 01:08:16;;;;;;;;;;;4.80;1.00;;;;;;5083379;28;19919;-68
2021/10/15 01:10:42;;;;;;;;;;;4.80;1.00;;;;;;5091202;28;19916;-68
2021/10/15 01:13:07;;;;;;;;;;;4.80;1.00;;;;;;5088081;28;20625;-67
2021/10/15 01:15:33;;;;;;;;;;;4.70;1.00;;;;;;5090726;28;19912;-69
2021/10/15 01:17:58;;;;;;;;;;;4.60;1.00;;;;;;5090364;28;19912;-68
2021/10/15 01:20:24;;;;;;;;;;;4.60;1.00;;;;;;5090497;28;19908;-69
2021/10/15 01:22:49;;;;;;;;;;;4.60;1.00;;;;;;5089871;28;19908;-67
2021/10/15 01:25:15;;;;;;;;;;;4.60;1.00;;;;;;5070281;28;20050;-69
2021/10/15 01:27:41;;;;;;;;;;;4.60;1.00;;;;;;5072391;28;19923;-69
2021/10/15 01:30:07;;;;;;;;;;;4.60;1.00;;;;;;5071186;28;19912;-67
2021/10/15 01:32:32;;;;;;;;;;;4.60;1.00;;;;;;5069429;28;19909;-69
2021/10/15 01:34:58;;;;;;;;;;;4.60;1.00;;;;;;5069597;28;20249;-65
2021/10/15 01:37:23;;;;;;;;;;;4.60;1.00;;;;;;5077847;28;19908;-66
2021/10/15 01:39:49;;;;;;;;;;;4.60;1.00;;;;;;5090327;28;20008;-66
2021/10/15 01:44:58;;;;;;;;;;;4.60;1.00;;;;;;5088869;28;20034;-65
2021/10/15 01:47:24;;;;;;;;;;;4.60;1.00;;;;;;5090105;28;20002;-66
2021/10/15 01:49:49;;;;;;;;;;;4.60;1.00;;;;;;5090236;28;20011;-65
2021/10/15 01:52:15;;;;;;;;;;;4.50;1.00;;;;;;5089098;28;19908;-65
2021/10/15 01:54:40;;;;;;;;;;;4.50;1.00;;;;;;5089832;28;20057;-65
2021/10/15 01:57:06;;;;;;;;;;;4.50;1.00;;;;;;5088678;28;20399;-66
2021/10/15 01:59:31;;;;;;;;;;;4.40;1.00;;;;;;5089339;28;20248;-65
2021/10/15 02:01:57;;;;;;;;;;;4.40;1.00;;;;;;5089108;28;19991;-65
2021/10/15 02:04:22;;;;;;;;;;;4.40;1.00;;;;;;5089193;28;19923;-67
2021/10/15 02:06:48;;;;;;;;;;;4.30;1.00;;;;;;5089869;28;20425;-67
2021/10/15 02:09:13;;;;;;;;;;;4.30;1.00;;;;;;5089921;28;20306;-66
2021/10/15 02:11:39;;;;;;;;;;;4.30;1.00;;;;;;5089279;28;20003;-65
2021/10/15 02:14:04;;;;;;;;;;;4.30;1.00;;;;;;5087830;28;19999;-66
2021/10/15 02:16:30;;;;;;;;;;;4.30;1.00;;;;;;5089546;28;20038;-66
2021/10/15 02:18:55;;;;;;;;;;;4.20;1.00;;;;;;5090131;28;19912;-66
2021/10/15 02:21:20;;;;;;;;;;;4.20;1.00;;;;;;5090017;28;20013;-65
2021/10/15 02:23:46;;;;;;;;;;;4.10;1.00;;;;;;5081399;28;19919;-66
2021/10/15 02:26:13;;;;;;;;;;;4.10;1.00;;;;;;5069560;28;20019;-67
2021/10/15 02:28:38;;;;;;;;;;;4.10;1.00;;;;;;5072124;28;19939;-67
2021/10/15 02:31:04;;;;;;;;;;;4.10;1.00;;;;;;5080334;28;20305;-66
2021/10/15 02:33:29;;;;;;;;;;;4.10;1.00;;;;;;5088203;28;19954;-67
2021/10/15 02:35:55;;;;;;;;;;;4.00;1.00;;;;;;5089310;28;19961;-67
2021/10/15 02:38:20;;;;;;;;;;;4.00;1.00;;;;;;5073413;28;20788;-66
2021/10/15 02:40:46;;;;;;;;;;;4.00;1.00;;;;;;5069602;28;19915;-66
2021/10/15 02:43:11;;;;;;;;;;;3.90;1.00;;;;;;5066385;28;19920;-67
2021/10/15 02:45:37;;;;;;;;;;;3.80;1.00;;;;;;5069288;28;19912;-66
2021/10/15 02:48:03;;;;;;;;;;;3.80;1.00;;;;;;5068724;28;20349;-67
2021/10/15 02:50:29;;;;;;;;;;;3.70;1.00;;;;;;5069107;28;19999;-68
2021/10/15 02:52:54;;;;;;;;;;;3.70;1.00;;;;;;5067820;28;19995;-65
2021/10/15 02:55:20;;;;;;;;;;;3.70;1.00;;;;;;5068731;28;19916;-68
2021/10/15 02:57:45;;;;;;;;;;;3.60;1.00;;;;;;5067948;28;19912;-67
2021/10/15 03:00:11;;;;;;;;;;;3.50;1.00;;;;;;5068029;28;20388;-67
2021/10/15 03:02:36;;;;;;;;;;;3.50;1.00;;;;;;5067665;28;19974;-66
2021/10/15 03:05:02;;;;;;;;;;;3.50;1.00;;;;;;5068703;28;19916;-67
2021/10/15 03:07:27;;;;;;;;;;;3.50;1.00;;;;;;5068701;28;20027;-67
2021/10/15 03:09:53;;;;;;;;;;;3.50;1.00;;;;;;5071403;28;19909;-67
2021/10/15 03:12:18;;;;;;;;;;;3.50;1.00;;;;;;5070937;28;19995;-65
2021/10/15 03:14:44;;;;;;;;;;;3.50;1.00;;;;;;5071918;28;20003;-67
2021/10/15 03:17:10;;;;;;;;;;;3.50;1.00;;;;;;5072738;28;20583;-67
2021/10/15 03:19:35;;;;;;;;;;;3.50;1.00;;;;;;5072784;28;19912;-67
2021/10/15 03:22:01;;;;;;;;;;;3.50;1.00;;;;;;5072201;28;19915;-66
2021/10/15 03:24:27;;;;;;;;;;;3.50;1.00;;;;;;5072369;28;19916;-66
2021/10/15 03:26:52;;;;;;;;;;;3.40;1.00;;;;;;5071510;28;20003;-67
2021/10/15 03:29:18;;;;;;;;;;;3.40;1.00;;;;;;5077220;28;19974;-68
2021/10/15 03:31:43;;;;;;;;;;;3.40;1.00;;;;;;5072377;28;19947;-63
2021/10/15 03:34:09;;;;;;;;;;;3.40;1.00;;;;;;5072179;28;19948;-68
2021/10/15 03:36:34;;;;;;;;;;;3.30;1.00;;;;;;5073325;28;19916;-68
2021/10/15 03:39:00;;;;;;;;;;;3.30;1.00;;;;;;5092293;28;19908;-68
2021/10/15 03:41:25;;;;;;;;;;;3.30;1.00;;;;;;5092681;28;20232;-66
2021/10/15 03:43:51;;;;;;;;;;;3.30;1.00;;;;;;5090008;28;19912;-65
2021/10/15 03:46:16;;;;;;;;;;;3.30;1.00;;;;;;5092506;28;20279;-66
2021/10/15 03:48:42;;;;;;;;;;;3.30;1.00;;;;;;5092356;28;19912;-64
2021/10/15 03:51:07;;;;;;;;;;;3.30;1.00;;;;;;5092620;28;20433;-67
2021/10/15 03:53:32;;;;;;;;;;;3.30;1.00;;;;;;5091604;28;19909;-66
2021/10/15 03:55:58;;;;;;;;;;;3.30;1.00;;;;;;5092681;28;20265;-66
2021/10/15 03:58:23;;;;;;;;;;;3.40;1.00;;;;;;5090311;28;19938;-66
2021/10/15 04:00:49;;;;;;;;;;;3.40;1.00;;;;;;5092526;28;19946;-67
2021/10/15 04:03:15;;;;;;;;;;;3.40;1.00;;;;;;5090962;28;19951;-67
2021/10/15 04:05:40;;;;;;;;;;;3.40;1.00;;;;;;5087604;28;19916;-66
2021/10/15 04:08:06;;;;;;;;;;;3.50;1.00;;;;;;5083359;28;20017;-67
2021/10/15 04:10:31;;;;;;;;;;;3.50;1.00;;;;;;5092324;28;19908;-67
2021/10/15 04:12:57;;;;;;;;;;;3.50;1.00;;;;;;5089398;28;20127;-66
2021/10/15 04:15:22;;;;;;;;;;;3.50;1.00;;;;;;5091383;28;19909;-68
2021/10/15 04:17:47;;;;;;;;;;;3.50;1.00;;;;;;5092023;28;19917;-65
2021/10/15 04:20:13;;;;;;;;;;;3.60;1.00;;;;;;5091382;28;19908;-67
2021/10/15 04:22:39;;;;;;;;;;;3.60;1.00;;;;;;5090914;28;19912;-67
2021/10/15 04:25:05;;;;;;;;;;;3.50;1.00;;;;;;5072887;28;19985;-68
2021/10/15 04:27:30;;;;;;;;;;;3.60;1.00;;;;;;5072164;28;20019;-68
2021/10/15 04:29:55;;;;;;;;;;;3.50;1.00;;;;;;5070480;28;19908;-67
2021/10/15 04:32:21;;;;;;;;;;;3.50;1.00;;;;;;5069123;28;19912;-67
2021/10/15 04:34:47;;;;;;;;;;;3.50;1.00;;;;;;5071187;28;19912;-66
2021/10/15 04:37:12;;;;;;;;;;;3.50;1.00;;;;;;5076415;28;19920;-68
2021/10/15 04:39:38;;;;;;;;;;;3.50;1.00;;;;;;5091606;28;19954;-68
2021/10/15 04:42:04;;;;;;;;;;;3.50;1.00;;;;;;5088730;28;19912;-68
2021/10/15 04:44:29;;;;;;;;;;;3.60;1.00;;;;;;5089607;28;19994;-67
2021/10/15 04:46:54;;;;;;;;;;;3.60;1.00;;;;;;5090844;28;19919;-68
2021/10/15 04:49:20;;;;;;;;;;;3.60;1.00;;;;;;5090277;28;19908;-68
2021/10/15 04:51:45;;;;;;;;;;;3.60;1.00;;;;;;5089427;28;20297;-66
2021/10/15 04:54:11;;;;;;;;;;;3.60;1.00;;;;;;5090472;28;19912;-68
2021/10/15 04:56:36;;;;;;;;;;;3.60;1.00;;;;;;5081342;28;20000;-66
2021/10/15 04:59:02;;;;;;;;;;;3.70;1.00;;;;;;5065646;28;19931;-67
2021/10/15 05:01:28;;;;;;;;;;;3.70;1.00;;;;;;5068156;28;19943;-66
2021/10/15 05:03:53;;;;;;;;;;;3.70;1.00;;;;;;5066987;28;20379;-67
2021/10/15 05:06:19;;;;;;;;;;;3.60;1.00;;;;;;5068281;28;19916;-66
2021/10/15 05:09:02;;;;;;;;;;;3.60;1.00;;;;;;5067613;28;19913;-66
2021/10/15 05:11:28;;;;;;;;;;;3.60;1.00;;;;;;5067633;28;19931;-66
2021/10/15 05:13:54;;;;;;;;;;;3.50;1.00;;;;;;5065277;28;19916;-68
2021/10/15 05:16:20;;;;;;;;;;;3.50;1.00;;;;;;5068050;28;19989;-67
2021/10/15 05:18:45;;;;;;;;;;;3.40;1.00;;;;;;5067575;28;19995;-67
2021/10/15 05:21:11;;;;;;;;;;;3.20;1.00;;;;;;5067007;28;19958;-67
2021/10/15 05:23:36;;;;;;;;;;;3.10;1.00;;;;;;5064844;28;20312;-69
2021/10/15 05:26:01;;;;;;;;;;;3.00;1.00;;;;;;5067800;28;19917;-68
2021/10/15 05:28:27;;;;;;;;;;;2.90;1.00;;;;;;5071057;28;19963;-67
2021/10/15 05:30:54;;;;;;;;;;;2.90;1.00;;;;;;5080515;28;20360;-67
2021/10/15 05:33:20;;;;;;;;;;;2.90;1.00;;;;;;5066275;28;19951;-66
2021/10/15 05:35:45;;;;;;;;;;;3.00;1.00;;;;;;5067125;28;20348;-68
2021/10/15 05:38:11;;;;;;;;;;;3.00;1.00;;;;;;5080940;28;19912;-67
2021/10/15 05:40:36;;;;;;;;;;;3.10;1.00;;;;;;5087343;28;19952;-67
2021/10/15 05:43:02;;;;;;;;;;;3.20;1.00;;;;;;5072256;28;19908;-67
2021/10/15 05:45:27;;;;;;;;;;;3.20;1.00;;;;;;5066611;28;19920;-67
2021/10/15 05:47:53;;;;;;;;;;;3.30;1.00;;;;;;5066686;28;19913;-67
2021/10/15 05:50:18;;;;;;;;;;;3.30;1.00;;;;;;5066974;28;19908;-67
2021/10/15 05:52:47;;;;;;;;;;;3.40;1.00;;;;;;5066494;28;19962;-68
2021/10/15 06:00:23;;;;;;;;;;;3.50;1.00;;;;;;5066191;28;19959;-66
2021/10/15 06:02:48;;;;;;;;;;;3.40;1.00;;;;;;5065231;28;20045;-66
2021/10/15 06:15:52;;;;;;;;;;;3.60;1.00;;;;;;5066173;28;19966;-66
2021/10/15 06:18:20;;;;;;;;;;;3.70;1.00;;;;;;5066227;28;20234;-65
2021/10/15 06:20:45;;;;;;;;;;;3.70;1.00;;;;;;5066881;28;20407;-65
2021/10/15 06:23:11;;;;;;;;;;;3.90;1.00;;;;;;5064431;28;20003;-64
2021/10/15 06:25:37;;;;;;;;;;;4.00;1.00;;;;;;5066622;28;20509;-65
2021/10/15 06:28:03;;;;;;;;;;;4.10;1.00;;;;;;5067027;28;19917;-65
2021/10/15 06:30:29;;;;;;;;;;;4.20;1.00;;;;;;5066181;28;19992;-66
2021/10/15 06:32:54;;;;;;;;;;;4.30;1.00;;;;;;5064839;28;19962;-64
2021/10/15 06:35:20;;;;;;;;;;;4.50;1.00;;;;;;5067025;28;19951;-66
2021/10/15 06:37:46;;;;;;;;;;;4.60;1.00;;;;;;5075465;28;19921;-66
2021/10/15 06:40:11;;;;;;;;;;;4.70;1.00;;;;;;5068409;28;19920;-66
2021/10/15 06:42:37;;;;;;;;;;;4.80;99.90;;;;;;5067291;28;19927;-67
2021/10/15 06:45:03;;;;;;;;;;;4.90;99.90;;;;;;5066913;28;19920;-67
2021/10/15 06:47:29;;;;;;;;;;;5.10;99.90;;;;;;5068418;28;20015;-67
2021/10/15 06:49:54;;;;;;;;;;;5.30;1.00;;;;;;5068192;28;20512;-67
2021/10/15 06:52:20;;;;;;;;;;;5.40;1.00;;;;;;5068004;28;19962;-67
2021/10/15 06:54:46;;;;;;;;;;;5.40;99.90;;;;;;5068296;28;19920;-67
2021/10/15 06:57:11;;;;;;;;;;;5.50;1.00;;;;;;5067829;28;20016;-66
2021/10/15 06:59:37;;;;;;;;;;;5.50;99.90;;;;;;5067251;28;19921;-66
2021/10/15 07:02:02;;;;;;;;;;;5.50;99.90;;;;;;5066357;28;19912;-67
2021/10/15 07:04:28;;;;;;;;;;;5.60;1.00;;;;;;5063440;28;20273;-67
2021/10/15 07:06:53;;;;;;;;;;;5.70;99.90;;;;;;5068379;28;19919;-66
2021/10/15 07:09:19;;;;;;;;;;;5.80;1.00;;;;;;5068086;28;20042;-67
2021/10/15 07:11:47;;;;;;;;;;;6.00;1.00;;;;;;5067256;28;20019;-67
2021/10/15 07:14:13;;;;;;;;;;;6.20;1.00;;;;;;5065576;28;19916;-67
2021/10/15 07:16:39;;;;;;;;;;;6.30;1.00;;;;;;5067579;28;20388;-66
2021/10/15 07:19:04;;;;;;;;;;;6.30;1.00;;;;;;5068134;28;19974;-66
2021/10/15 07:21:30;;;;;;;;;;;6.30;99.90;;;;;;5067753;28;19921;-66
2021/10/15 07:23:55;;;;;;;;;;;6.30;99.90;;;;;;5066930;28;19917;-67
2021/10/15 07:26:21;;;;;;;;;;;6.40;99.90;;;;;;5067754;28;19917;-66
2021/10/15 07:28:46;;;;;;;;;;;6.40;31.80;;;;;;5067613;28;19917;-67
2021/10/15 07:31:12;;;;;;;;;;;6.40;99.90;;;;;;5067888;28;19954;-65
2021/10/15 07:33:37;;;;;;;;;;;6.30;99.90;;;;;;5065620;28;19921;-67
2021/10/15 07:36:03;;;;;;;;;;;6.30;1.00;;;;;;5067934;28;19912;-69
2021/10/15 07:38:28;;;;;;;;;;;6.30;1.00;;;;;;5066288;28;20024;-67
2021/10/15 07:40:54;;;;;;;;;;;6.40;1.00;;;;;;5068143;28;19951;-67
2021/10/15 07:43:20;;;;;;;;;;;6.40;99.90;;;;;;5064919;28;19916;-67
2021/10/15 07:45:45;;;;;;;;;;;6.40;99.90;;;;;;5067331;28;19917;-67
2021/10/15 07:48:11;;;;;;;;;;;6.50;39.60;;;;;;5067668;28;19967;-66
2021/10/15 07:50:36;;;;;;;;;;;6.60;1.00;;;;;;5067196;28;19951;-67
2021/10/15 07:53:02;;;;;;;;;;;7.20;99.90;;;;;;5066796;28;19927;-66
2021/10/15 07:55:28;;;;;;;;;;;9.10;99.90;;;;;;5067457;28;19955;-66
2021/10/15 07:57:53;;;;;;;;;;;11.30;1.00;;;;;;5070552;28;19936;-66
2021/10/15 08:00:19;;;;;;;;;;;14.90;99.90;;;;;;5070907;28;19959;-65
2021/10/15 08:02:46;;;;;;;;;;;16.10;99.90;;;;;;5070622;28;19966;-64
2021/10/15 08:05:16;;;;;;;;;;;16.70;99.90;;;;;;5071103;28;19927;-65
2021/10/15 08:07:42;;;;;;;;;;;16.80;99.90;;;;;;5071120;28;20054;-65
2021/10/15 08:10:08;;;;;;;;;;;16.80;99.90;;;;;;5071578;28;19916;-66
2021/10/15 08:12:33;;;;;;;;;;;16.60;99.90;;;;;;5069426;28;19923;-65
2021/10/15 08:14:59;;;;;;;;;;;16.70;99.90;;;;;;5069976;28;19918;-65
2021/10/15 08:17:24;;;;;;;;;;;17.00;99.90;;;;;;5066080;28;19920;-66
2021/10/15 08:19:50;;;;;;;;;;;16.80;99.90;;;;;;5070749;28;19916;-66
2021/10/15 08:22:15;;;;;;;;;;;19.70;99.90;;;;;;5070404;28;19924;-66
2021/10/15 08:24:41;;;;;;;;;;;18.70;99.90;;;;;;5070292;28;19920;-66
2021/10/15 08:27:06;;;;;;;;;;;19.70;99.90;;;;;;5070272;28;20008;-66
2021/10/15 08:29:37;;;;;;;;;;;24.50;99.90;;;;;;5074783;28;19913;-66
2021/10/15 08:32:02;;;;;;;;;;;26.70;99.90;;;;;;5075329;28;19924;-65
2021/10/15 08:34:28;;;;;;;;;;;27.20;99.90;;;;;;5070941;28;19941;-67
2021/10/15 08:36:55;;;;;;;;;;;27.30;99.90;;;;;;5074221;28;19996;-68
2021/10/15 08:39:26;;;;;;;;;;;27.90;99.90;;;;;;5071179;28;20349;-66
2021/10/15 08:41:51;;;;;;;;;;;28.80;99.90;;;;;;5069437;28;20361;-67
2021/10/15 08:44:17;;;;;;;;;;;30.80;99.90;;;;;;5069490;28;19923;-67
2021/10/15 08:46:42;;;;;;;;;;;31.10;99.90;;;;;;5069923;28;19921;-67
2021/10/15 08:49:08;;;;;;;;;;;31.10;99.90;;;;;;5070603;28;20486;-68
2021/10/15 08:51:34;;;;;;;;;;;33.00;99.90;;;;;;5070469;28;19917;-68
2021/10/15 08:54:00;;;;;;;;;;;34.20;99.90;;;;;;5069063;28;19916;-68
2021/10/15 08:56:31;;;;;;;;;;;35.30;99.90;;;;;;5070297;28;19916;-68
2021/10/15 08:58:57;;;;;;;;;;;36.20;99.90;;;;;;5068592;28;20369;-67
2021/10/15 09:01:27;;;;;;;;;;;36.60;99.70;;;;;;5070586;28;20027;-68
2021/10/15 09:04:03;;;;;;;;;;;36.70;91.40;;;;;;5069249;28;19908;-67
2021/10/15 09:06:34;;;;;;;;;;;36.80;76.10;;;;;;5069284;28;19916;-68
2021/10/15 09:08:59;;;;;;;;;;;35.80;57.90;;;;;;5069601;28;19948;-66
2021/10/15 09:11:25;;;;;;;;;;;34.50;48.20;;;;;;5070283;28;19963;-66
2021/10/15 09:13:51;;;;;;;;;;;34.60;40.60;;;;;;5067620;28;19913;-69
2021/10/15 09:16:16;;;;;;;;;;;35.70;34.70;;;;;;5070202;28;20321;-68
2021/10/15 09:18:45;;;;;;;;;;;36.40;27.60;;;;;;5069056;28;19924;-68
2021/10/15 09:21:14;;;;;;;;;;;35.00;20.20;;;;;;5070203;28;20288;-68
2021/10/15 09:23:47;;;;;;;;;;;35.50;16.30;;;;;;5062898;28;20285;-68
2021/10/15 09:26:13;;;;;;;;;;;34.80;10.90;;;;;;5070330;28;19928;-68
2021/10/15 09:28:42;;;;;;;;;;;34.70;6.60;;;;;;5067975;28;20266;-68
2021/10/15 09:31:09;;;;;;;;;;;34.50;3.30;;;;;;5069671;28;19961;-68
2021/10/15 09:33:34;;;;;;;;;;;33.70;1.00;;;;;;5068684;28;20004;-66
2021/10/15 09:36:04;;;;;;;;;;;33.00;1.00;;;;;;5069753;28;20085;-67
2021/10/15 09:38:29;;;;;;;;;;;32.30;1.00;;;;;;5072137;28;19983;-67
2021/10/15 09:40:55;;;;;;;;;;;31.20;1.00;;;;;;5069681;28;19917;-68
2021/10/15 09:43:31;;;;;;;;;;;32.60;1.00;;;;;;5066484;28;20363;-67
2021/10/15 09:45:56;;;;;;;;;;;34.10;1.00;;;;;;5069692;28;19999;-68
2021/10/15 09:48:31;;;;;;;;;;;34.50;1.00;;;;;;5069289;28;20007;-67
2021/10/15 09:51:10;;;;;;;;;;;34.60;1.00;;;;;;5069485;28;19931;-68
2021/10/15 09:53:36;;;;;;;;;;;35.00;1.00;;;;;;5067930;28;20046;-68
2021/10/15 09:56:02;;;;;;;;;;;35.70;1.00;;;;;;5069458;28;19995;-68
2021/10/15 09:58:27;;;;;;;;;;;35.70;1.00;;;;;;5067223;28;19970;-68
2021/10/15 10:00:53;;;;;;;;;;;34.70;1.00;;;;;;5069338;28;20421;-68
2021/10/15 10:03:20;;;;;;;;;;;33.00;1.00;;;;;;5067089;28;19932;-67
2021/10/15 10:05:46;;;;;;;;;;;32.20;1.00;;;;;;5071519;28;19916;-67
2021/10/15 10:08:11;;;;;;;;;;;30.80;1.00;;;;;;5072668;28;20475;-67
2021/10/15 10:10:38;;;;;;;;;;;30.70;1.00;;;;;;5068098;28;19916;-67
2021/10/15 10:13:04;;;;;;;;;;;30.80;1.00;;;;;;5058039;28;20018;-67
2021/10/15 10:15:34;;;;;;;;;;;30.80;1.00;;;;;;5060157;28;19982;-67
2021/10/15 10:18:34;;;;;;;;;;;30.70;1.00;;;;;;5068110;28;19913;-67
2021/10/15 10:21:06;;;;;;;;;;;30.60;1.00;;;;;;5035814;28;20285;-67
2021/10/15 10:23:33;;;;;;;;;;;29.80;1.00;;;;;;5067502;28;19998;-66
2021/10/15 10:26:00;;;;;;;;;;;29.40;1.00;;;;;;5068613;28;19916;-67
2021/10/15 10:28:27;;;;;;;;;;;29.30;1.00;;;;;;5068112;28;19916;-67
2021/10/15 10:31:03;;;;;;;;;;;28.70;1.00;;;;;;5068850;28;20003;-67
2021/10/15 10:33:29;;;;;;;;;;;26.80;1.00;;;;;;5049952;28;19908;-68
2021/10/15 10:36:08;;;;;;;;;;;25.90;1.00;;;;;;5067360;28;19931;-67
2021/10/15 10:38:34;;;;;;;;;;;25.90;1.00;;;;;;5068330;28;19912;-67
2021/10/15 10:40:59;;;;;;;;;;;25.90;1.00;;;;;;5068587;28;19923;-67
2021/10/15 10:43:25;;;;;;;;;;;25.20;1.00;;;;;;5065690;28;19951;-66
2021/10/15 10:46:10;;;;;;;;;;;25.30;1.00;;;;;;5066623;28;19920;-68
2021/10/15 10:48:50;;;;;;;;;;;25.60;1.00;;;;;;5068042;28;20638;-67
2021/10/15 10:51:16;;;;;;;;;;;25.20;1.00;;;;;;5067432;28;19961;-71
2021/10/15 10:54:00;;;;;;;;;;;26.00;1.00;;;;;;5065600;28;20338;-68
2021/10/15 10:56:52;;;;;;;;;;;26.10;1.00;;;;;;5066523;28;19931;-67
2021/10/15 10:59:21;;;;;;;;;;;26.00;1.00;;;;;;5065202;28;20322;-69
2021/10/15 11:01:50;;;;;;;;;;;26.20;1.00;;;;;;5067454;28;19917;-67
2021/10/15 11:04:29;;;;;;;;;;;26.60;1.00;;;;;;5068453;28;19949;-66
2021/10/15 11:06:58;;;;;;;;;;;26.60;1.00;;;;;;5067751;28;20002;-67
2021/10/15 11:09:34;;;;;;;;;;;26.60;1.00;;;;;;5067574;28;20007;-69
2021/10/15 11:12:00;;;;;;;;;;;26.80;1.00;;;;;;5066094;28;19923;-69
2021/10/15 11:14:45;;;;;;;;;;;26.50;1.00;;;;;;5066985;28;20523;-68
2021/10/15 11:17:11;;;;;;;;;;;26.60;1.00;;;;;;5067519;28;20361;-67
2021/10/15 11:19:37;;;;;;;;;;;26.40;1.00;;;;;;5067481;28;19978;-66
2021/10/15 11:22:03;;;;;;;;;;;26.00;1.00;;;;;;5064832;28;19939;-66
2021/10/15 11:24:28;;;;;;;;;;;26.00;1.00;;;;;;5067640;28;19913;-67
2021/10/15 11:26:55;;;;;;;;;;;26.10;1.00;;;;;;5067686;28;19919;-68
2021/10/15 11:29:20;;;;;;;;;;;26.10;1.00;;;;;;5078235;28;19915;-68
2021/10/15 11:31:56;;;;;;;;;;;25.90;1.00;;;;;;5078904;28;19912;-68
2021/10/15 11:34:22;;;;;;;;;;;25.70;1.00;;;;;;5072206;28;19913;-67
2021/10/15 11:36:47;;;;;;;;;;;25.60;1.00;;;;;;5074743;28;19920;-68
2021/10/15 11:39:13;;;;;;;;;;;25.60;1.00;;;;;;5074898;28;19970;-66
2021/10/15 11:41:48;;;;;;;;;;;25.60;1.00;;;;;;5072156;28;20693;-66
2021/10/15 11:44:14;;;;;;;;;;;25.60;1.00;;;;;;5070054;28;19970;-68
2021/10/15 11:46:39;;;;;;;;;;;25.90;1.00;;;;;;5071781;28;20429;-66
2021/10/15 11:49:05;;;;;;;;;;;25.80;1.00;;;;;;5071598;28;19916;-67
2021/10/15 11:51:30;;;;;;;;;;;25.20;2.30;;;;;;5072212;28;19913;-68
2021/10/15 11:54:00;;;;;;;;;;;24.50;1.00;;;;;;5070130;28;19936;-67
2021/10/15 11:56:27;;;;;;;;;;;24.30;1.00;;;;;;5071108;28;20004;-67
2021/10/15 11:58:53;;;;;;;;;;;24.50;1.00;;;;;;5069412;28;19931;-67
2021/10/15 12:01:20;;;;;;;;;;;24.30;1.00;;;;;;5071767;28;19969;-66
2021/10/15 12:03:50;;;;;;;;;;;23.80;1.00;;;;;;5070515;28;20071;-67
2021/10/15 12:06:25;;;;;;;;;;;23.60;1.00;;;;;;5070674;28;19920;-67
2021/10/15 12:09:04;;;;;;;;;;;23.70;1.00;;;;;;5071366;28;19921;-66
2021/10/15 12:11:42;;;;;;;;;;;23.90;1.00;;;;;;5071313;28;19912;-66
2021/10/15 12:14:09;;;;;;;;;;;24.10;1.00;;;;;;5068843;28;20461;-67
2021/10/15 12:16:40;;;;;;;;;;;23.90;1.10;;;;;;5071102;28;19959;-66
2021/10/15 12:19:09;;;;;;;;;;;23.70;1.50;;;;;;5071153;28;20332;-66
2021/10/15 12:21:49;;;;;;;;;;;23.50;2.40;;;;;;5071414;28;20007;-66
2021/10/15 12:24:24;;;;;;;;;;;23.40;3.10;;;;;;5068069;28;19963;-67
2021/10/15 12:27:08;;;;;;;;;;;22.90;3.80;;;;;;5070287;28;19917;-65
2021/10/15 12:29:37;;;;;;;;;;;22.70;4.70;;;;;;5073056;28;20277;-66
2021/10/15 12:32:11;;;;;;;;;;;22.60;5.30;;;;;;5070379;28;19915;-66
2021/10/15 12:34:49;;;;;;;;;;;22.70;6.70;;;;;;5067948;28;19932;-67
2021/10/15 12:37:15;;;;;;;;;;;22.90;8.00;;;;;;5067637;28;20453;-66
2021/10/15 12:39:40;;;;;;;;;;;23.00;8.60;;;;;;5070693;28;20033;-67
2021/10/15 12:42:14;;;;;;;;;;;23.00;9.60;;;;;;5068268;28;19912;-67
2021/10/15 12:44:39;;;;;;;;;;;23.10;10.20;;;;;;5068861;28;19916;-66
2021/10/15 12:47:07;;;;;;;;;;;23.20;11.80;;;;;;5070619;28;20344;-66
2021/10/15 12:49:51;;;;;;;;;;;23.30;11.60;;;;;;5070900;28;19920;-67
2021/10/15 12:52:29;;;;;;;;;;;23.30;12.60;;;;;;5069393;28;20036;-65
2021/10/15 12:54:54;;;;;;;;;;;22.50;11.30;;;;;;5069787;28;19995;-67
2021/10/15 12:57:21;;;;;;;;;;;22.00;12.20;;;;;;5069180;28;20478;-66
2021/10/15 13:00:05;;;;;;;;;;;21.60;12.40;;;;;;5069389;28;20027;-66
2021/10/15 13:02:31;;;;;;;;;;;21.60;14.00;;;;;;5069101;28;20010;-65
2021/10/15 13:04:57;;;;;;;;;;;21.60;15.30;;;;;;5069877;28;20464;-66
2021/10/15 13:07:23;;;;;;;;;;;21.40;15.30;;;;;;5075750;28;19919;-66
2021/10/15 13:09:48;;;;;;;;;;;21.30;16.20;;;;;;5070966;28;19913;-65
2021/10/15 13:12:14;;;;;;;;;;;21.10;17.20;;;;;;5068629;28;19916;-66
2021/10/15 13:14:39;;;;;;;;;;;20.90;17.90;;;;;;5068428;28;19956;-66
2021/10/15 13:17:05;;;;;;;;;;;20.80;19.30;;;;;;5069919;28;19920;-66
2021/10/15 13:19:30;;;;;;;;;;;20.60;20.30;;;;;;5070066;28;20396;-66
2021/10/15 13:21:56;;;;;;;;;;;20.60;21.00;;;;;;5068744;28;19958;-68
2021/10/15 13:24:21;;;;;;;;;;;20.70;23.10;;;;;;5069154;28;20610;-66
2021/10/15 13:26:47;;;;;;;;;;;20.70;23.20;;;;;;5069029;28;19996;-66
2021/10/15 13:29:12;;;;;;;;;;;20.70;24.50;;;;;;5072146;28;20296;-65
2021/10/15 13:31:38;;;;;;;;;;;20.70;25.20;;;;;;5069582;28;20543;-67
2021/10/15 13:34:03;;;;;;;;;;;20.70;25.60;;;;;;5068339;28;19913;-67
2021/10/15 13:36:30;;;;;;;;;;;20.60;26.10;;;;;;5069873;28;19916;-65
2021/10/15 13:38:56;;;;;;;;;;;20.60;27.00;;;;;;5068729;28;19962;-67
2021/10/15 13:41:34;;;;;;;;;;;20.60;27.60;;;;;;5054123;28;19916;-67
2021/10/15 13:52:09;;;;;;;;;;;20.20;30.00;;;;;;5069105;28;19982;-66
2021/10/15 13:54:34;;;;;;;;;;;19.90;31.10;;;;;;5068067;28;20015;-66
2021/10/15 13:57:04;;;;;;;;;;;19.70;31.70;;;;;;5068105;28;19917;-67
2021/10/15 13:59:32;;;;;;;;;;;19.60;32.90;;;;;;5068977;28;19908;-66
2021/10/15 14:01:58;;;;;;;;;;;19.50;34.10;;;;;;5067960;28;19920;-66
2021/10/15 14:04:32;;;;;;;;;;;19.30;35.10;;;;;;5068748;28;19912;-66
2021/10/15 14:06:58;;;;;;;;;;;19.20;36.70;;;;;;5068300;28;19923;-66
2021/10/15 14:09:24;;;;;;;;;;;19.10;39.80;;;;;;5067776;28;20254;-66
2021/10/15 14:11:49;;;;;;;;;;;19.10;40.10;;;;;;5065616;28;19959;-66
2021/10/15 14:14:15;;;;;;;;;;;19.20;41.70;;;;;;5063195;28;19975;-67
2021/10/15 14:16:44;;;;;;;;;;;19.10;43.00;;;;;;5065507;28;20311;-67
2021/10/15 14:19:09;;;;;;;;;;;19.00;44.50;;;;;;5068592;28;20337;-65
2021/10/15 14:21:35;;;;;;;;;;;19.00;45.40;;;;;;5068677;28;19944;-67
2021/10/15 14:24:01;;;;;;;;;;;18.90;46.10;;;;;;5067897;28;19999;-66
2021/10/15 14:26:26;;;;;;;;;;;18.70;48.20;;;;;;5069022;28;20264;-67
2021/10/15 14:28:52;;;;;;;;;;;18.60;48.80;;;;;;5068078;28;20008;-67
2021/10/15 14:31:18;;;;;;;;;;;18.60;50.20;;;;;;5081412;28;19912;-67
2021/10/15 14:33:44;;;;;;;;;;;18.60;51.60;;;;;;5067470;28;19913;-67
2021/10/15 14:36:10;;;;;;;;;;;18.50;52.90;;;;;;5068618;28;20289;-66
2021/10/15 14:38:35;;;;;;;;;;;18.60;54.60;;;;;;5077731;28;19915;-66
2021/10/15 14:41:04;;;;;;;;;;;18.60;56.00;;;;;;5068049;28;20306;-65
2021/10/15 14:43:29;;;;;;;;;;;18.60;56.50;;;;;;5065978;28;19932;-66
2021/10/15 14:45:55;;;;;;;;;;;18.50;56.90;;;;;;5068289;28;19916;-66
2021/10/15 14:48:20;;;;;;;;;;;18.30;57.80;;;;;;5067759;28;19922;-65
2021/10/15 14:50:46;;;;;;;;;;;18.20;58.70;;;;;;5068544;28;20039;-67
2021/10/15 14:53:11;;;;;;;;;;;18.20;59.50;;;;;;5066569;28;19908;-65
2021/10/15 14:55:37;;;;;;;;;;;18.10;60.60;;;;;;5068518;28;19920;-66
2021/10/15 14:58:05;;;;;;;;;;;18.00;62.70;;;;;;5067068;28;19929;-66